Currently 73°F in Simi Valley, California, USA
73°F
74°F / 49°F
8 mph W
0.00"
Saturday, September 23, 2017 1:11 PM PDT

Simi Valley, California Weather Summary
Last 36 Hours

Temperature Winds Hourly Humidity Dewpoint
Time Report Norm Report Norm Max Gusts Precip. Rpt. Norm Rpt. Norm Pressure
1Sat 01:11 PM  73.4°F  84°F  8 mph W  6 mph  16 mph  0.00"  39%  39%  46°F  56°F  29.81"
2Sat 01:09 PM  73.6°F  84°F  7 mph W  6 mph  16 mph  ----  40%  39%  47°F  56°F  29.81"
Sat 01:00 PM  72.9°F  84°F  10 mph W  6 mph  20 mph  0.00"  39%  39%  46°F  56°F  29.81"
Sat 12:00 PM  71.8°F  82°F  9 mph W  5 mph  15 mph  0.00"  37%  42%  43°F  56°F  29.82"
Sat 11:00 AM  68.9°F  79°F  6 mph SW  4 mph  15 mph  0.00"  42%  47%  44°F  56°F  29.83"
Sat 10:00 AM  66.0°F  74°F  5 mph SW  3 mph  8 mph  0.00"  48%  55%  45°F  56°F  29.84"
Sat 09:00 AM  58.7°F  69°F  1 mph S  2 mph  4 mph  0.00"  68%  64%  48°F  55°F  29.84"
Sat 08:00 AM  52.1°F  63°F  calm  1 mph  4 mph  0.00"  75%  70%  44°F  53°F  29.83"
3Sat 07:10 AM  49.3°F  61°F  calm  2 mph  4 mph  ----  76%  71%  42°F  51°F  29.82"
Sat 07:00 AM  49.5°F  61°F  2 mph NE  2 mph  10 mph  0.00"  76%  71%  42°F  51°F  29.82"
Sat 06:00 AM  49.7°F  61°F  3 mph E  2 mph  7 mph  0.00"  76%  70%  42°F  51°F  29.80"
Sat 05:00 AM  50.0°F  61°F  3 mph NE  2 mph  6 mph  0.00"  76%  69%  42°F  51°F  29.79"
Sat 04:00 AM  50.4°F  62°F  calm  2 mph  6 mph  0.00"  75%  68%  42°F  51°F  29.79"
Sat 03:00 AM  51.1°F  63°F  3 mph NW  2 mph  8 mph  0.00"  75%  66%  43°F  51°F  29.78"
Sat 02:00 AM  51.6°F  64°F  4 mph NE  2 mph  8 mph  0.00"  77%  65%  44°F  51°F  29.79"
Sat 01:00 AM  52.7°F  64°F  3 mph SW  1 mph  8 mph  0.00"  79%  64%  46°F  52°F  29.78"
Sat 12:00 AM  53.7°F  65°F  6 mph NW  2 mph  7 mph  0.00"  78%  64%  47°F  52°F  29.78"
Fri 11:00 PM  54.5°F  66°F  5 mph NW  2 mph  7 mph  0.00"  77%  63%  47°F  53°F  29.79"
Fri 10:00 PM  56.0°F  68°F  5 mph NW  2 mph  6 mph  0.00"  76%  62%  48°F  54°F  29.79"
Fri 09:00 PM  59.1°F  69°F  2 mph N  1 mph  6 mph  0.00"  77%  61%  52°F  55°F  29.79"
Fri 08:00 PM  60.0°F  72°F  3 mph W  1 mph  10 mph  0.00"  75%  58%  52°F  56°F  29.79"
Fri 07:00 PM  62.9°F  75°F  6 mph W  3 mph  13 mph  0.00"  62%  54%  49°F  56°F  29.78"
Fri 06:00 PM  65.6°F  78°F  6 mph NW  5 mph  15 mph  0.00"  53%  48%  48°F  56°F  29.78"
Fri 05:00 PM  67.8°F  81°F  6 mph W  6 mph  16 mph  0.00"  47%  44%  46°F  56°F  29.78"
Fri 04:00 PM  68.7°F  83°F  6 mph W  7 mph  20 mph  0.00"  52%  42%  50°F  56°F  29.78"
Fri 03:00 PM  70.0°F  84°F  7 mph SW  7 mph  22 mph  0.00"  51%  40%  50°F  56°F  29.80"
Fri 02:00 PM  71.5°F  85°F  6 mph W  7 mph  18 mph  0.00"  46%  40%  49°F  57°F  29.80"
Fri 01:00 PM  69.6°F  84°F  5 mph NW  6 mph  13 mph  0.00"  48%  40%  48°F  56°F  29.82"
Fri 12:00 PM  68.3°F  82°F  8 mph SW  5 mph  13 mph  0.00"  50%  43%  48°F  56°F  29.84"
Fri 11:00 AM  65.7°F  79°F  3 mph SW  4 mph  11 mph  0.00"  59%  48%  50°F  57°F  29.86"
Fri 10:00 AM  62.0°F  74°F  calm  3 mph  7 mph  0.00"  68%  56%  51°F  57°F  29.87"
Fri 09:00 AM  58.4°F  69°F  calm  2 mph  6 mph  0.00"  81%  64%  52°F  56°F  29.87"
Fri 08:00 AM  52.9°F  63°F  3 mph W  1 mph  8 mph  0.00"  81%  70%  47°F  53°F  29.86"
Fri 07:00 AM  50.6°F  61°F  6 mph SE  2 mph  9 mph  0.00"  80%  71%  44°F  51°F  29.85"
Fri 06:00 AM  50.3°F  61°F  6 mph N  2 mph  8 mph  0.00"  76%  71%  43°F  51°F  29.83"
Fri 05:00 AM  50.7°F  62°F  5 mph W  2 mph  8 mph  0.00"  75%  69%  43°F  51°F  29.82"
Fri 04:00 AM  51.3°F  62°F  5 mph N  2 mph  7 mph  0.00"  74%  68%  43°F  51°F  29.81"
Fri 03:00 AM  52.8°F  63°F  calm  2 mph  6 mph  0.00"  72%  67%  44°F  52°F  29.81"
Fri 02:00 AM  53.8°F  64°F  4 mph NW  2 mph  6 mph  0.00"  71%  66%  44°F  52°F  29.81"

  1. Current weather data. No green row appears if the current weather data is also the high or low for the current day.
  2. High temperature for the current day.
  3. Low temperature for the current day.

The Simi Valley, California weather pages are a service of WeatherCurrents.
Copyright ©Sat Sep 23 13:12:59 PDT 2017  WeatherCurrents. All rights reserved. - Submit questions and comments - Privacy Policy

This page automatically refreshes every 10 minutes.